Warsaw, Indiana
Current Conditions -  °F | °C
As of 1:35 PM on Saturday 25 Oct 2014 (Local Time) from KASW Reporting Station
Haze Haze  
Wind Chill: 63°   Ceiling: Unl
Heat Index: 63°   Visibility: 5mi
Dew Point: 54°   Wind: 13mph
Humidity: 72%   Direction: 290°WNW
Pressure: 29.93"   Gusts: 20mph
Location:  41.24°N, 85.85°W
Report Text: KASW 251735Z AUTO 29011G17KT 5SM HZ SCT021 17/12 A2993 RMK AO2
Loading
Personal Weather Stations






























Interactive Weather Map
Tropical Storm Tracking
New forecast layout! Learn more

10-Day Weather Forecast

Advertisements
Track Severe Weather on mobile